sensor_id;sensor_type;location;lat;lon;timestamp;temperature;humidity
11142;DHT22;5625;50.122;19.864;2023-02-18T00:01:37;9.20;99.90
11142;DHT22;5625;50.122;19.864;2023-02-18T00:04:08;9.20;99.90
11142;DHT22;5625;50.122;19.864;2023-02-18T00:06:38;9.20;99.90
11142;DHT22;5625;50.122;19.864;2023-02-18T00:09:06;9.20;99.90
11142;DHT22;5625;50.122;19.864;2023-02-18T00:11:36;9.20;99.90
11142;DHT22;5625;50.122;19.864;2023-02-18T00:14:06;9.20;99.90
11142;DHT22;5625;50.122;19.864;2023-02-18T00:16:34;9.20;99.90
11142;DHT22;5625;50.122;19.864;2023-02-18T00:19:05;9.20;99.90
11142;DHT22;5625;50.122;19.864;2023-02-18T00:21:36;9.20;99.90
11142;DHT22;5625;50.122;19.864;2023-02-18T00:24:05;9.20;99.90
11142;DHT22;5625;50.122;19.864;2023-02-18T00:26:33;9.20;99.90
11142;DHT22;5625;50.122;19.864;2023-02-18T00:29:02;9.20;99.90
11142;DHT22;5625;50.122;19.864;2023-02-18T00:31:32;9.20;99.90
11142;DHT22;5625;50.122;19.864;2023-02-18T00:34:02;9.20;99.90
11142;DHT22;5625;50.122;19.864;2023-02-18T00:36:32;9.20;99.90
11142;DHT22;5625;50.122;19.864;2023-02-18T00:39:04;9.20;99.90
11142;DHT22;5625;50.122;19.864;2023-02-18T00:41:33;9.20;99.90
11142;DHT22;5625;50.122;19.864;2023-02-18T00:44:01;9.30;99.90
11142;DHT22;5625;50.122;19.864;2023-02-18T00:46:31;9.30;99.90
11142;DHT22;5625;50.122;19.864;2023-02-18T00:48:59;9.30;99.90
11142;DHT22;5625;50.122;19.864;2023-02-18T00:51:27;9.20;99.90
11142;DHT22;5625;50.122;19.864;2023-02-18T00:53:55;9.30;99.90
11142;DHT22;5625;50.122;19.864;2023-02-18T00:56:25;9.30;99.90
11142;DHT22;5625;50.122;19.864;2023-02-18T00:58:55;9.30;99.90
11142;DHT22;5625;50.122;19.864;2023-02-18T01:01:23;9.30;99.90
11142;DHT22;5625;50.122;19.864;2023-02-18T01:03:51;9.30;99.90
11142;DHT22;5625;50.122;19.864;2023-02-18T01:06:19;9.30;99.90
11142;DHT22;5625;50.122;19.864;2023-02-18T01:08:48;9.30;99.90
11142;DHT22;5625;50.122;19.864;2023-02-18T01:11:16;9.30;99.90
11142;DHT22;5625;50.122;19.864;2023-02-18T01:13:45;9.30;99.90
11142;DHT22;5625;50.122;19.864;2023-02-18T01:16:13;9.30;99.90
11142;DHT22;5625;50.122;19.864;2023-02-18T01:18:43;9.20;99.90
11142;DHT22;5625;50.122;19.864;2023-02-18T01:21:11;9.30;99.90
11142;DHT22;5625;50.122;19.864;2023-02-18T01:23:40;9.20;99.90
11142;DHT22;5625;50.122;19.864;2023-02-18T01:26:09;9.20;99.90
11142;DHT22;5625;50.122;19.864;2023-02-18T01:28:37;9.10;99.90
11142;DHT22;5625;50.122;19.864;2023-02-18T01:31:10;9.10;99.90
11142;DHT22;5625;50.122;19.864;2023-02-18T01:33:39;9.10;99.90
11142;DHT22;5625;50.122;19.864;2023-02-18T01:36:09;9.00;99.90
11142;DHT22;5625;50.122;19.864;2023-02-18T01:38:38;9.00;99.90
11142;DHT22;5625;50.122;19.864;2023-02-18T01:41:06;8.90;99.90
11142;DHT22;5625;50.122;19.864;2023-02-18T01:43:34;8.90;99.90
11142;DHT22;5625;50.122;19.864;2023-02-18T01:46:15;8.80;99.90
11142;DHT22;5625;50.122;19.864;2023-02-18T01:48:47;8.80;99.90
11142;DHT22;5625;50.122;19.864;2023-02-18T01:51:18;8.80;99.90
11142;DHT22;5625;50.122;19.864;2023-02-18T01:53:51;8.70;99.90
11142;DHT22;5625;50.122;19.864;2023-02-18T01:56:28;8.70;99.90
11142;DHT22;5625;50.122;19.864;2023-02-18T01:59:00;8.70;99.90
11142;DHT22;5625;50.122;19.864;2023-02-18T02:01:30;8.70;99.90
11142;DHT22;5625;50.122;19.864;2023-02-18T02:03:59;8.70;99.90
11142;DHT22;5625;50.122;19.864;2023-02-18T02:06:27;8.60;99.90
11142;DHT22;5625;50.122;19.864;2023-02-18T02:08:58;8.60;99.90
11142;DHT22;5625;50.122;19.864;2023-02-18T02:11:53;8.60;99.90
11142;DHT22;5625;50.122;19.864;2023-02-18T02:14:36;8.50;99.90
11142;DHT22;5625;50.122;19.864;2023-02-18T02:17:14;8.50;99.90
11142;DHT22;5625;50.122;19.864;2023-02-18T02:20:29;8.50;99.90
11142;DHT22;5625;50.122;19.864;2023-02-18T02:23:45;8.40;99.90
11142;DHT22;5625;50.122;19.864;2023-02-18T02:26:41;8.40;99.90
11142;DHT22;5625;50.122;19.864;2023-02-18T02:29:39;8.40;99.90
11142;DHT22;5625;50.122;19.864;2023-02-18T02:35:01;8.30;99.90
11142;DHT22;5625;50.122;19.864;2023-02-18T02:37:35;8.30;85.10
11142;DHT22;5625;50.122;19.864;2023-02-18T02:40:15;8.20;99.90
11142;DHT22;5625;50.122;19.864;2023-02-18T02:42:57;8.20;99.90
11142;DHT22;5625;50.122;19.864;2023-02-18T02:45:37;8.20;99.90
11142;DHT22;5625;50.122;19.864;2023-02-18T02:48:17;8.20;99.90
11142;DHT22;5625;50.122;19.864;2023-02-18T02:50:53;8.20;99.90
11142;DHT22;5625;50.122;19.864;2023-02-18T02:53:30;8.20;99.90
11142;DHT22;5625;50.122;19.864;2023-02-18T02:56:00;8.10;99.90
11142;DHT22;5625;50.122;19.864;2023-02-18T02:58:28;8.10;99.90
11142;DHT22;5625;50.122;19.864;2023-02-18T03:01:08;8.10;99.90
11142;DHT22;5625;50.122;19.864;2023-02-18T03:04:05;8.10;99.90
11142;DHT22;5625;50.122;19.864;2023-02-18T03:07:01;8.00;99.90
11142;DHT22;5625;50.122;19.864;2023-02-18T03:09:42;8.00;99.90
11142;DHT22;5625;50.122;19.864;2023-02-18T03:12:21;8.00;99.90
11142;DHT22;5625;50.122;19.864;2023-02-18T03:14:55;8.00;99.90
11142;DHT22;5625;50.122;19.864;2023-02-18T03:17:29;8.00;99.90
11142;DHT22;5625;50.122;19.864;2023-02-18T03:20:04;7.90;99.90
11142;DHT22;5625;50.122;19.864;2023-02-18T03:22:39;7.90;99.90
11142;DHT22;5625;50.122;19.864;2023-02-18T03:25:09;7.90;99.90
11142;DHT22;5625;50.122;19.864;2023-02-18T03:27:42;7.80;99.90
11142;DHT22;5625;50.122;19.864;2023-02-18T03:30:15;7.80;99.90
11142;DHT22;5625;50.122;19.864;2023-02-18T03:32:45;7.80;99.90
11142;DHT22;5625;50.122;19.864;2023-02-18T03:35:16;7.70;99.90
11142;DHT22;5625;50.122;19.864;2023-02-18T03:37:49;7.70;99.90
11142;DHT22;5625;50.122;19.864;2023-02-18T03:40:18;7.70;99.90
11142;DHT22;5625;50.122;19.864;2023-02-18T03:42:46;7.70;99.90
11142;DHT22;5625;50.122;19.864;2023-02-18T03:45:14;7.60;99.90
11142;DHT22;5625;50.122;19.864;2023-02-18T03:47:42;7.50;99.90
11142;DHT22;5625;50.122;19.864;2023-02-18T03:50:10;7.50;99.90
11142;DHT22;5625;50.122;19.864;2023-02-18T03:52:38;7.50;99.90
11142;DHT22;5625;50.122;19.864;2023-02-18T03:55:08;7.40;99.90
11142;DHT22;5625;50.122;19.864;2023-02-18T03:57:36;7.40;99.90
11142;DHT22;5625;50.122;19.864;2023-02-18T04:00:05;7.40;99.90
11142;DHT22;5625;50.122;19.864;2023-02-18T04:02:33;7.30;99.90
11142;DHT22;5625;50.122;19.864;2023-02-18T04:05:01;7.30;99.90
11142;DHT22;5625;50.122;19.864;2023-02-18T04:07:29;7.30;99.90
11142;DHT22;5625;50.122;19.864;2023-02-18T04:09:57;7.30;99.90
11142;DHT22;5625;50.122;19.864;2023-02-18T04:12:26;7.30;99.90
11142;DHT22;5625;50.122;19.864;2023-02-18T04:14:54;7.20;99.90
11142;DHT22;5625;50.122;19.864;2023-02-18T04:17:22;7.30;99.90
11142;DHT22;5625;50.122;19.864;2023-02-18T04:19:50;7.20;99.90
11142;DHT22;5625;50.122;19.864;2023-02-18T04:22:18;7.20;99.90
11142;DHT22;5625;50.122;19.864;2023-02-18T04:24:46;7.20;99.90
11142;DHT22;5625;50.122;19.864;2023-02-18T04:27:14;7.10;99.90
11142;DHT22;5625;50.122;19.864;2023-02-18T04:29:44;7.10;99.90
11142;DHT22;5625;50.122;19.864;2023-02-18T04:32:14;7.10;99.90
11142;DHT22;5625;50.122;19.864;2023-02-18T04:34:42;7.10;99.90
11142;DHT22;5625;50.122;19.864;2023-02-18T04:37:10;7.00;99.90
11142;DHT22;5625;50.122;19.864;2023-02-18T04:39:38;7.00;99.90
11142;DHT22;5625;50.122;19.864;2023-02-18T04:42:06;7.00;99.90
11142;DHT22;5625;50.122;19.864;2023-02-18T04:44:36;6.90;99.90
11142;DHT22;5625;50.122;19.864;2023-02-18T04:47:06;6.90;99.90
11142;DHT22;5625;50.122;19.864;2023-02-18T04:49:34;6.90;99.90
11142;DHT22;5625;50.122;19.864;2023-02-18T04:52:05;6.90;99.90
11142;DHT22;5625;50.122;19.864;2023-02-18T04:54:33;6.90;99.90
11142;DHT22;5625;50.122;19.864;2023-02-18T04:57:01;6.90;99.90
11142;DHT22;5625;50.122;19.864;2023-02-18T04:59:29;6.90;99.90
11142;DHT22;5625;50.122;19.864;2023-02-18T05:01:57;6.90;99.90
11142;DHT22;5625;50.122;19.864;2023-02-18T05:04:26;6.80;99.90
11142;DHT22;5625;50.122;19.864;2023-02-18T05:06:55;6.80;99.90
11142;DHT22;5625;50.122;19.864;2023-02-18T05:09:23;6.80;99.90
11142;DHT22;5625;50.122;19.864;2023-02-18T05:11:51;6.80;99.90
11142;DHT22;5625;50.122;19.864;2023-02-18T05:14:19;6.80;99.90
11142;DHT22;5625;50.122;19.864;2023-02-18T05:16:48;6.70;99.90
11142;DHT22;5625;50.122;19.864;2023-02-18T05:19:16;6.70;99.90
11142;DHT22;5625;50.122;19.864;2023-02-18T05:21:45;6.70;99.90
11142;DHT22;5625;50.122;19.864;2023-02-18T05:24:13;6.70;99.90
11142;DHT22;5625;50.122;19.864;2023-02-18T05:26:41;6.70;99.90
11142;DHT22;5625;50.122;19.864;2023-02-18T05:29:09;6.70;99.90
11142;DHT22;5625;50.122;19.864;2023-02-18T05:31:37;6.70;99.90
11142;DHT22;5625;50.122;19.864;2023-02-18T05:34:06;6.60;99.90
11142;DHT22;5625;50.122;19.864;2023-02-18T05:36:34;6.60;99.90
11142;DHT22;5625;50.122;19.864;2023-02-18T05:39:04;6.60;99.90
11142;DHT22;5625;50.122;19.864;2023-02-18T05:41:32;6.60;99.90
11142;DHT22;5625;50.122;19.864;2023-02-18T05:44:01;6.60;99.90
11142;DHT22;5625;50.122;19.864;2023-02-18T05:46:46;6.50;99.90
11142;DHT22;5625;50.122;19.864;2023-02-18T05:49:15;6.60;99.90
11142;DHT22;5625;50.122;19.864;2023-02-18T05:51:43;6.50;99.90
11142;DHT22;5625;50.122;19.864;2023-02-18T05:54:13;6.50;99.90
11142;DHT22;5625;50.122;19.864;2023-02-18T05:56:41;6.50;99.90
11142;DHT22;5625;50.122;19.864;2023-02-18T05:59:09;6.40;99.90
11142;DHT22;5625;50.122;19.864;2023-02-18T06:01:37;6.40;99.90
11142;DHT22;5625;50.122;19.864;2023-02-18T06:04:06;6.40;99.90
11142;DHT22;5625;50.122;19.864;2023-02-18T06:06:34;6.30;99.90
11142;DHT22;5625;50.122;19.864;2023-02-18T06:09:05;6.40;99.90
11142;DHT22;5625;50.122;19.864;2023-02-18T06:11:35;6.30;99.90
11142;DHT22;5625;50.122;19.864;2023-02-18T06:14:04;6.30;99.90
11142;DHT22;5625;50.122;19.864;2023-02-18T06:16:33;6.30;99.90
11142;DHT22;5625;50.122;19.864;2023-02-18T06:19:01;6.20;99.90
11142;DHT22;5625;50.122;19.864;2023-02-18T06:21:29;6.30;99.90
11142;DHT22;5625;50.122;19.864;2023-02-18T06:23:57;6.30;99.90
11142;DHT22;5625;50.122;19.864;2023-02-18T06:26:25;6.20;99.90
11142;DHT22;5625;50.122;19.864;2023-02-18T06:28:55;6.30;99.90
11142;DHT22;5625;50.122;19.864;2023-02-18T06:31:23;6.20;99.90
11142;DHT22;5625;50.122;19.864;2023-02-18T06:33:51;6.20;99.90
11142;DHT22;5625;50.122;19.864;2023-02-18T06:36:19;6.20;99.90
11142;DHT22;5625;50.122;19.864;2023-02-18T06:38:47;6.20;99.90
11142;DHT22;5625;50.122;19.864;2023-02-18T06:41:15;6.20;99.90
11142;DHT22;5625;50.122;19.864;2023-02-18T06:43:43;6.20;99.90
11142;DHT22;5625;50.122;19.864;2023-02-18T06:46:12;6.20;99.90
11142;DHT22;5625;50.122;19.864;2023-02-18T06:48:41;6.20;99.90
11142;DHT22;5625;50.122;19.864;2023-02-18T06:51:09;6.20;99.90
11142;DHT22;5625;50.122;19.864;2023-02-18T06:53:37;6.20;99.90
11142;DHT22;5625;50.122;19.864;2023-02-18T06:56:05;6.20;99.90
11142;DHT22;5625;50.122;19.864;2023-02-18T06:58:33;6.20;99.90
11142;DHT22;5625;50.122;19.864;2023-02-18T07:01:02;6.30;99.90
11142;DHT22;5625;50.122;19.864;2023-02-18T07:03:32;6.30;99.90
11142;DHT22;5625;50.122;19.864;2023-02-18T07:06:00;6.40;99.90
11142;DHT22;5625;50.122;19.864;2023-02-18T07:08:28;6.40;99.90
11142;DHT22;5625;50.122;19.864;2023-02-18T07:10:58;6.40;99.90
11142;DHT22;5625;50.122;19.864;2023-02-18T07:13:26;6.40;99.90
11142;DHT22;5625;50.122;19.864;2023-02-18T07:15:54;6.50;99.90
11142;DHT22;5625;50.122;19.864;2023-02-18T07:18:22;6.50;99.90
11142;DHT22;5625;50.122;19.864;2023-02-18T07:20:52;6.60;99.90
11142;DHT22;5625;50.122;19.864;2023-02-18T07:23:20;6.60;99.90
11142;DHT22;5625;50.122;19.864;2023-02-18T07:25:48;6.70;99.90
11142;DHT22;5625;50.122;19.864;2023-02-18T07:28:16;6.70;99.90
11142;DHT22;5625;50.122;19.864;2023-02-18T07:30:44;6.80;99.90
11142;DHT22;5625;50.122;19.864;2023-02-18T07:33:12;6.80;99.90
11142;DHT22;5625;50.122;19.864;2023-02-18T07:35:41;6.90;99.90
11142;DHT22;5625;50.122;19.864;2023-02-18T07:38:13;6.90;99.90
11142;DHT22;5625;50.122;19.864;2023-02-18T07:40:44;6.90;99.90
11142;DHT22;5625;50.122;19.864;2023-02-18T07:43:12;7.00;99.90
11142;DHT22;5625;50.122;19.864;2023-02-18T07:45:40;7.00;99.90
11142;DHT22;5625;50.122;19.864;2023-02-18T07:48:08;7.00;99.90
11142;DHT22;5625;50.122;19.864;2023-02-18T07:50:38;7.10;99.90
11142;DHT22;5625;50.122;19.864;2023-02-18T07:53:07;7.10;99.90
11142;DHT22;5625;50.122;19.864;2023-02-18T07:55:37;7.20;99.90
11142;DHT22;5625;50.122;19.864;2023-02-18T07:58:17;7.20;99.90
11142;DHT22;5625;50.122;19.864;2023-02-18T08:00:47;7.20;99.90
11142;DHT22;5625;50.122;19.864;2023-02-18T08:03:17;7.20;99.90
11142;DHT22;5625;50.122;19.864;2023-02-18T08:05:47;7.20;99.90
11142;DHT22;5625;50.122;19.864;2023-02-18T08:08:18;7.30;99.90
11142;DHT22;5625;50.122;19.864;2023-02-18T08:10:49;7.30;99.90
11142;DHT22;5625;50.122;19.864;2023-02-18T08:13:17;7.30;99.90
11142;DHT22;5625;50.122;19.864;2023-02-18T08:15:46;7.30;99.90
11142;DHT22;5625;50.122;19.864;2023-02-18T08:18:15;7.40;99.90
11142;DHT22;5625;50.122;19.864;2023-02-18T08:20:46;7.40;99.90
11142;DHT22;5625;50.122;19.864;2023-02-18T08:23:17;7.50;99.90
11142;DHT22;5625;50.122;19.864;2023-02-18T08:25:50;7.50;99.90
11142;DHT22;5625;50.122;19.864;2023-02-18T08:28:21;7.50;99.90
11142;DHT22;5625;50.122;19.864;2023-02-18T08:30:52;7.50;99.90
11142;DHT22;5625;50.122;19.864;2023-02-18T08:33:21;7.60;99.90
11142;DHT22;5625;50.122;19.864;2023-02-18T08:35:52;7.60;99.90
11142;DHT22;5625;50.122;19.864;2023-02-18T08:38:21;7.70;99.90
11142;DHT22;5625;50.122;19.864;2023-02-18T08:41:00;7.70;99.90
11142;DHT22;5625;50.122;19.864;2023-02-18T08:43:28;7.70;99.90
11142;DHT22;5625;50.122;19.864;2023-02-18T08:45:57;7.80;99.90
11142;DHT22;5625;50.122;19.864;2023-02-18T08:48:27;7.90;99.90
11142;DHT22;5625;50.122;19.864;2023-02-18T08:50:55;7.90;99.90
11142;DHT22;5625;50.122;19.864;2023-02-18T08:53:24;8.00;99.90
11142;DHT22;5625;50.122;19.864;2023-02-18T08:56:04;8.10;99.90
11142;DHT22;5625;50.122;19.864;2023-02-18T08:58:32;8.20;99.90
11142;DHT22;5625;50.122;19.864;2023-02-18T09:01:07;8.20;99.90
11142;DHT22;5625;50.122;19.864;2023-02-18T09:03:37;8.30;99.90
11142;DHT22;5625;50.122;19.864;2023-02-18T09:06:07;8.30;99.90
11142;DHT22;5625;50.122;19.864;2023-02-18T09:08:35;8.30;99.90
11142;DHT22;5625;50.122;19.864;2023-02-18T09:11:05;8.30;99.90
11142;DHT22;5625;50.122;19.864;2023-02-18T09:13:37;8.30;99.90
11142;DHT22;5625;50.122;19.864;2023-02-18T09:16:11;8.40;99.90
11142;DHT22;5625;50.122;19.864;2023-02-18T09:18:40;8.40;99.90
11142;DHT22;5625;50.122;19.864;2023-02-18T09:21:10;8.40;99.90
11142;DHT22;5625;50.122;19.864;2023-02-18T09:23:41;8.40;99.90
11142;DHT22;5625;50.122;19.864;2023-02-18T09:26:13;8.40;99.90
11142;DHT22;5625;50.122;19.864;2023-02-18T09:28:42;8.50;99.90
11142;DHT22;5625;50.122;19.864;2023-02-18T09:31:12;8.50;99.90
11142;DHT22;5625;50.122;19.864;2023-02-18T09:33:44;8.60;99.90
11142;DHT22;5625;50.122;19.864;2023-02-18T09:36:12;8.60;99.90
11142;DHT22;5625;50.122;19.864;2023-02-18T09:38:40;8.60;99.90
11142;DHT22;5625;50.122;19.864;2023-02-18T09:41:18;8.60;99.90
11142;DHT22;5625;50.122;19.864;2023-02-18T09:43:54;8.70;99.90
11142;DHT22;5625;50.122;19.864;2023-02-18T09:46:28;8.70;99.90
11142;DHT22;5625;50.122;19.864;2023-02-18T09:49:02;8.70;99.90
11142;DHT22;5625;50.122;19.864;2023-02-18T09:51:30;8.80;99.90
11142;DHT22;5625;50.122;19.864;2023-02-18T09:53:59;8.80;99.90
11142;DHT22;5625;50.122;19.864;2023-02-18T09:56:31;8.80;99.90
11142;DHT22;5625;50.122;19.864;2023-02-18T09:59:03;8.80;99.90
11142;DHT22;5625;50.122;19.864;2023-02-18T10:01:36;8.80;99.90
11142;DHT22;5625;50.122;19.864;2023-02-18T10:04:12;8.80;99.90
11142;DHT22;5625;50.122;19.864;2023-02-18T10:06:42;8.90;99.90
11142;DHT22;5625;50.122;19.864;2023-02-18T10:09:19;8.90;99.90
11142;DHT22;5625;50.122;19.864;2023-02-18T10:11:54;8.90;99.90
11142;DHT22;5625;50.122;19.864;2023-02-18T10:14:31;8.90;99.90
11142;DHT22;5625;50.122;19.864;2023-02-18T10:17:02;9.00;99.90
11142;DHT22;5625;50.122;19.864;2023-02-18T10:19:33;9.10;99.90
11142;DHT22;5625;50.122;19.864;2023-02-18T10:22:05;9.30;99.90
11142;DHT22;5625;50.122;19.864;2023-02-18T10:24:40;9.30;99.90
11142;DHT22;5625;50.122;19.864;2023-02-18T10:27:17;9.30;99.90
11142;DHT22;5625;50.122;19.864;2023-02-18T10:29:49;9.30;99.90
11142;DHT22;5625;50.122;19.864;2023-02-18T10:32:21;9.30;99.90
11142;DHT22;5625;50.122;19.864;2023-02-18T10:34:53;9.30;99.90
11142;DHT22;5625;50.122;19.864;2023-02-18T10:37:45;9.30;99.90
11142;DHT22;5625;50.122;19.864;2023-02-18T10:40:18;9.30;99.90
11142;DHT22;5625;50.122;19.864;2023-02-18T10:42:58;9.30;99.90
11142;DHT22;5625;50.122;19.864;2023-02-18T10:45:40;9.30;99.90
11142;DHT22;5625;50.122;19.864;2023-02-18T10:48:28;9.20;99.90
11142;DHT22;5625;50.122;19.864;2023-02-18T10:51:07;9.30;99.90
11142;DHT22;5625;50.122;19.864;2023-02-18T10:53:41;9.30;99.90
11142;DHT22;5625;50.122;19.864;2023-02-18T10:56:32;9.30;99.90
11142;DHT22;5625;50.122;19.864;2023-02-18T10:59:10;9.30;99.90
11142;DHT22;5625;50.122;19.864;2023-02-18T11:01:41;9.20;99.90
11142;DHT22;5625;50.122;19.864;2023-02-18T11:04:14;9.20;31.80
11142;DHT22;5625;50.122;19.864;2023-02-18T11:06:44;9.20;99.90
11142;DHT22;5625;50.122;19.864;2023-02-18T11:09:29;9.20;99.90
11142;DHT22;5625;50.122;19.864;2023-02-18T11:12:03;9.20;99.90
11142;DHT22;5625;50.122;19.864;2023-02-18T11:14:39;9.20;99.90
11142;DHT22;5625;50.122;19.864;2023-02-18T11:17:14;9.20;99.90
11142;DHT22;5625;50.122;19.864;2023-02-18T11:19:54;9.30;99.90
11142;DHT22;5625;50.122;19.864;2023-02-18T11:22:23;9.30;99.90
11142;DHT22;5625;50.122;19.864;2023-02-18T11:24:56;9.20;99.90
11142;DHT22;5625;50.122;19.864;2023-02-18T11:27:28;9.20;1.00
11142;DHT22;5625;50.122;19.864;2023-02-18T11:30:20;9.10;1.00
11142;DHT22;5625;50.122;19.864;2023-02-18T11:32:50;9.10;1.00
11142;DHT22;5625;50.122;19.864;2023-02-18T11:35:23;9.10;1.00
11142;DHT22;5625;50.122;19.864;2023-02-18T11:37:52;9.10;99.90
11142;DHT22;5625;50.122;19.864;2023-02-18T11:40:23;9.10;99.90
11142;DHT22;5625;50.122;19.864;2023-02-18T11:42:52;9.10;99.90
11142;DHT22;5625;50.122;19.864;2023-02-18T11:45:32;9.10;99.90
11142;DHT22;5625;50.122;19.864;2023-02-18T11:48:06;9.10;99.90
11142;DHT22;5625;50.122;19.864;2023-02-18T11:50:34;9.10;99.90
11142;DHT22;5625;50.122;19.864;2023-02-18T11:53:25;9.00;99.90
11142;DHT22;5625;50.122;19.864;2023-02-18T11:55:56;9.00;99.90
11142;DHT22;5625;50.122;19.864;2023-02-18T11:58:24;8.90;99.90
11142;DHT22;5625;50.122;19.864;2023-02-18T12:00:55;9.00;99.90
11142;DHT22;5625;50.122;19.864;2023-02-18T12:03:30;9.00;99.90
11142;DHT22;5625;50.122;19.864;2023-02-18T12:06:14;9.00;99.90
11142;DHT22;5625;50.122;19.864;2023-02-18T12:08:48;9.10;99.90
11142;DHT22;5625;50.122;19.864;2023-02-18T12:11:25;9.10;99.90
11142;DHT22;5625;50.122;19.864;2023-02-18T12:13:56;9.00;99.90
11142;DHT22;5625;50.122;19.864;2023-02-18T12:16:34;9.10;99.90
11142;DHT22;5625;50.122;19.864;2023-02-18T12:19:17;9.00;99.90
11142;DHT22;5625;50.122;19.864;2023-02-18T12:21:56;9.00;99.90
11142;DHT22;5625;50.122;19.864;2023-02-18T12:24:44;8.90;99.90
11142;DHT22;5625;50.122;19.864;2023-02-18T12:27:23;9.00;99.90
11142;DHT22;5625;50.122;19.864;2023-02-18T12:30:12;9.00;99.90
11142;DHT22;5625;50.122;19.864;2023-02-18T12:32:49;8.90;99.90
11142;DHT22;5625;50.122;19.864;2023-02-18T12:35:45;8.90;99.90
11142;DHT22;5625;50.122;19.864;2023-02-18T12:38:41;8.80;99.90
11142;DHT22;5625;50.122;19.864;2023-02-18T12:41:30;8.70;99.90
11142;DHT22;5625;50.122;19.864;2023-02-18T12:44:08;8.60;99.90
11142;DHT22;5625;50.122;19.864;2023-02-18T12:46:52;8.60;99.90
11142;DHT22;5625;50.122;19.864;2023-02-18T12:49:43;8.60;99.90
11142;DHT22;5625;50.122;19.864;2023-02-18T12:52:24;8.60;99.90
11142;DHT22;5625;50.122;19.864;2023-02-18T12:55:19;8.60;99.90
11142;DHT22;5625;50.122;19.864;2023-02-18T12:57:55;8.60;99.90
11142;DHT22;5625;50.122;19.864;2023-02-18T13:00:49;8.60;99.90
11142;DHT22;5625;50.122;19.864;2023-02-18T13:09:47;8.50;99.90
11142;DHT22;5625;50.122;19.864;2023-02-18T13:12:25;8.40;99.90
11142;DHT22;5625;50.122;19.864;2023-02-18T13:14:59;8.40;99.90
11142;DHT22;5625;50.122;19.864;2023-02-18T13:17:32;8.40;99.90
11142;DHT22;5625;50.122;19.864;2023-02-18T13:20:04;8.40;99.90
11142;DHT22;5625;50.122;19.864;2023-02-18T13:22:37;8.30;99.90
11142;DHT22;5625;50.122;19.864;2023-02-18T13:25:12;8.30;99.90
11142;DHT22;5625;50.122;19.864;2023-02-18T13:27:44;8.30;99.90
11142;DHT22;5625;50.122;19.864;2023-02-18T13:30:21;8.30;99.90
11142;DHT22;5625;50.122;19.864;2023-02-18T13:33:02;8.30;99.90
11142;DHT22;5625;50.122;19.864;2023-02-18T13:35:37;8.20;99.90
11142;DHT22;5625;50.122;19.864;2023-02-18T13:41:04;8.20;99.90
11142;DHT22;5625;50.122;19.864;2023-02-18T13:43:34;8.10;99.90
11142;DHT22;5625;50.122;19.864;2023-02-18T13:46:10;8.10;99.90
11142;DHT22;5625;50.122;19.864;2023-02-18T13:48:45;8.10;99.90
11142;DHT22;5625;50.122;19.864;2023-02-18T13:51:17;8.00;99.90
11142;DHT22;5625;50.122;19.864;2023-02-18T13:54:00;8.00;99.90
11142;DHT22;5625;50.122;19.864;2023-02-18T13:56:31;8.00;99.90
11142;DHT22;5625;50.122;19.864;2023-02-18T13:59:06;8.00;99.90
11142;DHT22;5625;50.122;19.864;2023-02-18T14:01:40;8.00;99.90
11142;DHT22;5625;50.122;19.864;2023-02-18T14:04:33;7.90;99.90
11142;DHT22;5625;50.122;19.864;2023-02-18T14:10:27;7.80;99.90
11142;DHT22;5625;50.122;19.864;2023-02-18T14:13:20;7.80;99.90
11142;DHT22;5625;50.122;19.864;2023-02-18T14:15:53;7.70;99.90
11142;DHT22;5625;50.122;19.864;2023-02-18T14:18:32;7.70;99.90
11142;DHT22;5625;50.122;19.864;2023-02-18T14:21:15;7.60;99.90
11142;DHT22;5625;50.122;19.864;2023-02-18T14:24:03;7.60;99.90
11142;DHT22;5625;50.122;19.864;2023-02-18T14:26:36;7.60;99.90
11142;DHT22;5625;50.122;19.864;2023-02-18T14:29:20;7.60;99.90
11142;DHT22;5625;50.122;19.864;2023-02-18T14:31:52;7.60;99.90
11142;DHT22;5625;50.122;19.864;2023-02-18T14:34:48;7.50;99.90
11142;DHT22;5625;50.122;19.864;2023-02-18T14:41:00;7.40;99.90
11142;DHT22;5625;50.122;19.864;2023-02-18T14:44:00;7.40;99.90
11142;DHT22;5625;50.122;19.864;2023-02-18T14:46:38;7.40;99.90
11142;DHT22;5625;50.122;19.864;2023-02-18T14:49:24;7.40;99.90
11142;DHT22;5625;50.122;19.864;2023-02-18T14:51:58;7.30;99.90
11142;DHT22;5625;50.122;19.864;2023-02-18T14:54:28;7.30;99.90
11142;DHT22;5625;50.122;19.864;2023-02-18T14:56:59;7.30;99.90
11142;DHT22;5625;50.122;19.864;2023-02-18T14:59:33;7.30;99.90
11142;DHT22;5625;50.122;19.864;2023-02-18T15:02:08;7.30;99.90
11142;DHT22;5625;50.122;19.864;2023-02-18T15:04:41;7.20;99.90
11142;DHT22;5625;50.122;19.864;2023-02-18T15:07:11;7.20;99.90
11142;DHT22;5625;50.122;19.864;2023-02-18T15:09:47;7.20;99.90
11142;DHT22;5625;50.122;19.864;2023-02-18T15:12:17;7.20;99.90
11142;DHT22;5625;50.122;19.864;2023-02-18T15:14:49;7.20;99.90
11142;DHT22;5625;50.122;19.864;2023-02-18T15:17:20;7.20;99.90
11142;DHT22;5625;50.122;19.864;2023-02-18T15:19:53;7.20;99.90
11142;DHT22;5625;50.122;19.864;2023-02-18T15:22:25;7.10;99.90
11142;DHT22;5625;50.122;19.864;2023-02-18T15:24:54;7.10;99.90
11142;DHT22;5625;50.122;19.864;2023-02-18T15:27:25;7.10;99.90
11142;DHT22;5625;50.122;19.864;2023-02-18T15:30:02;7.10;99.90
11142;DHT22;5625;50.122;19.864;2023-02-18T15:32:31;7.10;99.90
11142;DHT22;5625;50.122;19.864;2023-02-18T15:35:00;7.10;99.90
11142;DHT22;5625;50.122;19.864;2023-02-18T15:37:30;7.00;99.90
11142;DHT22;5625;50.122;19.864;2023-02-18T15:39:58;7.10;99.90
11142;DHT22;5625;50.122;19.864;2023-02-18T15:42:28;7.00;99.90
11142;DHT22;5625;50.122;19.864;2023-02-18T15:45:03;7.00;99.90
11142;DHT22;5625;50.122;19.864;2023-02-18T15:47:32;7.00;99.90
11142;DHT22;5625;50.122;19.864;2023-02-18T15:50:01;7.00;99.90
11142;DHT22;5625;50.122;19.864;2023-02-18T15:52:31;7.00;99.90
11142;DHT22;5625;50.122;19.864;2023-02-18T15:55:05;7.00;99.90
11142;DHT22;5625;50.122;19.864;2023-02-18T15:57:35;6.90;99.90
11142;DHT22;5625;50.122;19.864;2023-02-18T16:00:13;6.90;99.90
11142;DHT22;5625;50.122;19.864;2023-02-18T16:03:04;6.90;99.90
11142;DHT22;5625;50.122;19.864;2023-02-18T16:05:42;6.90;99.90
11142;DHT22;5625;50.122;19.864;2023-02-18T16:08:14;6.90;99.90
11142;DHT22;5625;50.122;19.864;2023-02-18T16:10:48;6.80;99.90
11142;DHT22;5625;50.122;19.864;2023-02-18T16:13:17;6.80;99.90
11142;DHT22;5625;50.122;19.864;2023-02-18T16:15:50;6.80;99.90
11142;DHT22;5625;50.122;19.864;2023-02-18T16:18:26;6.80;99.90
11142;DHT22;5625;50.122;19.864;2023-02-18T16:20:57;6.80;99.90
11142;DHT22;5625;50.122;19.864;2023-02-18T16:23:33;6.80;99.90
11142;DHT22;5625;50.122;19.864;2023-02-18T16:26:10;6.80;99.90
11142;DHT22;5625;50.122;19.864;2023-02-18T16:28:41;6.70;99.90
11142;DHT22;5625;50.122;19.864;2023-02-18T16:31:11;6.70;99.90
11142;DHT22;5625;50.122;19.864;2023-02-18T16:33:42;6.70;99.90
11142;DHT22;5625;50.122;19.864;2023-02-18T16:36:12;6.70;99.90
11142;DHT22;5625;50.122;19.864;2023-02-18T16:38:42;6.70;99.90
11142;DHT22;5625;50.122;19.864;2023-02-18T16:41:12;6.70;99.90
11142;DHT22;5625;50.122;19.864;2023-02-18T16:43:41;6.70;99.90